createdAt,value
2022-11-02T08:01:40.118Z,17.90
2022-11-02T08:04:28.403Z,23.02
2022-11-02T08:07:18.113Z,22.07
2022-11-02T08:10:08.078Z,18.37
2022-11-02T09:25:55.577Z,14.57
2022-11-02T09:28:42.213Z,13.82
2022-11-02T09:31:30.188Z,14.90
2022-11-02T09:34:18.249Z,13.93
2022-11-02T09:37:13.197Z,14.98
2022-11-02T09:40:01.382Z,13.77
2022-11-02T09:46:05.043Z,14.55
2022-11-02T09:49:14.401Z,14.80
2022-11-02T09:52:07.646Z,14.93
2022-11-02T09:54:56.567Z,13.50
2022-11-02T09:57:46.193Z,14.50
2022-11-02T10:00:36.354Z,14.25
2022-11-02T10:03:53.165Z,15.50
2022-11-02T10:06:46.612Z,15.60
2022-11-02T10:09:44.388Z,16.12
2022-11-02T10:12:57.280Z,15.70
2022-11-02T10:21:54.279Z,14.57
2022-11-02T10:24:45.817Z,15.57
2022-11-02T10:27:40.240Z,16.12
2022-11-02T10:48:25.108Z,12.25
2022-11-02T10:51:13.564Z,13.85
2022-11-02T10:54:00.312Z,13.93
2022-11-02T10:56:49.458Z,13.15
2022-11-02T10:59:36.097Z,13.38
2022-11-02T11:02:29.417Z,12.95
2022-11-02T11:05:20.335Z,13.65
2022-11-02T11:08:07.468Z,13.88
2022-11-02T11:10:54.991Z,12.48
2022-11-02T11:20:08.727Z,12.37
2022-11-02T11:23:21.115Z,12.63
2022-11-02T11:26:27.219Z,12.65
2022-11-02T11:29:22.034Z,13.20
2022-11-02T11:32:29.630Z,12.20
2022-11-02T11:35:23.321Z,12.65
2022-11-02T11:38:15.773Z,13.25
2022-11-02T11:41:03.870Z,12.75
2022-11-02T11:43:58.038Z,13.38
2022-11-02T11:46:48.380Z,13.00
2022-11-02T11:50:08.755Z,13.00
2022-11-02T11:53:21.584Z,12.52
2022-11-02T11:56:26.333Z,12.48
2022-11-02T11:59:21.710Z,11.93
2022-11-02T12:02:25.389Z,11.10
2022-11-02T12:05:16.263Z,10.70
2022-11-02T12:08:13.248Z,10.55
2022-11-02T12:11:23.121Z,10.60
2022-11-02T12:14:32.131Z,7.78
2022-11-02T12:17:43.470Z,8.07
2022-11-02T12:20:40.748Z,9.98
2022-11-02T12:23:30.983Z,9.15
2022-11-02T12:26:34.484Z,9.48
2022-11-02T12:29:39.072Z,8.90
2022-11-02T12:32:37.945Z,9.02
2022-11-02T12:39:10.203Z,7.97
2022-11-02T12:42:19.301Z,6.50
2022-11-02T12:45:32.033Z,6.10
2022-11-02T12:48:29.136Z,4.43
2022-11-02T12:51:23.455Z,4.90
2022-11-02T12:54:17.597Z,4.57
2022-11-02T12:57:05.496Z,4.22
2022-11-02T13:00:22.310Z,5.03
2022-11-02T13:03:24.233Z,4.95
2022-11-02T13:06:22.998Z,4.97
2022-11-02T13:09:18.190Z,6.82
2022-11-02T13:12:16.071Z,5.80
2022-11-02T13:15:11.914Z,5.20
2022-11-02T13:18:19.111Z,4.50
2022-11-02T13:23:58.672Z,4.72
2022-11-02T13:26:57.299Z,5.45
2022-11-02T13:29:52.343Z,4.82
2022-11-02T13:33:18.125Z,5.82
2022-11-02T13:36:06.255Z,5.18
2022-11-02T13:39:10.162Z,5.12
2022-11-02T13:42:23.274Z,5.50
2022-11-02T13:45:42.271Z,5.53
2022-11-02T13:48:51.356Z,6.03
2022-11-02T13:52:01.047Z,5.90
2022-11-02T13:57:54.543Z,6.03
2022-11-02T14:00:45.477Z,6.05
2022-11-02T14:07:17.467Z,4.90
2022-11-02T14:10:10.987Z,4.72
2022-11-02T14:12:59.677Z,5.10
2022-11-02T14:15:53.420Z,4.68
2022-11-02T14:18:41.706Z,5.60
2022-11-02T14:21:43.061Z,4.47
2022-11-02T14:24:36.339Z,6.18
